Time;durP1;ratioP1;P1;durP2;ratioP2;P2;SDS_P1;SDS_P2;PMS_P1;PMS_P2;Temp;Humidity;BMP_temperature;BMP_pressure;BME280_temperature;BME280_humidity;BME280_pressure;Samples;Min_cycle;Max_cycle;Signal;HPM_P1;HPM_P2
2022/11/17 00:00:18;;;;;;;26.70;17.10;;;8.80;99.90;;;;;;5073059;28;20227;-77
2022/11/17 00:02:45;;;;;;;23.15;15.43;;;8.80;99.90;;;;;;5071361;28;20185;-78
2022/11/17 00:05:11;;;;;;;26.58;16.40;;;8.80;99.90;;;;;;5079047;28;20226;-78
2022/11/17 00:07:37;;;;;;;28.10;17.02;;;8.70;99.90;;;;;;5080342;28;20178;-79
2022/11/17 00:10:03;;;;;;;24.83;15.98;;;8.80;99.90;;;;;;5060537;28;20182;-77
2022/11/17 00:15:13;;;;;;;25.88;16.73;;;8.70;99.90;;;;;;5072628;28;20217;-77
2022/11/17 00:17:38;;;;;;;25.67;16.00;;;8.70;99.90;;;;;;5070433;28;20240;-78
2022/11/17 00:22:49;;;;;;;28.35;15.57;;;8.70;99.90;;;;;;5071590;28;20269;-79
2022/11/17 00:25:15;;;;;;;21.40;13.80;;;8.70;99.90;;;;;;5087239;28;20270;-79
2022/11/17 00:27:40;;;;;;;23.80;15.52;;;8.70;99.90;;;;;;5071546;28;20190;-80
2022/11/17 00:30:07;;;;;;;19.50;12.85;;;8.60;99.90;;;;;;5060073;28;20213;-79
2022/11/17 00:35:17;;;;;;;12.95;8.55;;;8.70;99.90;;;;;;5087506;28;20197;-80
2022/11/17 00:38:14;;;;;;;22.83;14.75;;;8.70;99.90;;;;;;5070616;28;20619;-77
2022/11/17 00:40:29;;;;;;;21.65;15.38;;;8.60;99.90;;;;;;5059983;28;20303;-77
2022/11/17 00:42:54;;;;;;;23.10;15.40;;;8.70;99.90;;;;;;5062886;28;20185;-77
2022/11/17 00:45:20;;;;;;;21.92;14.10;;;8.70;99.90;;;;;;5054789;28;20191;-77
2022/11/17 00:47:46;;;;;;;22.15;14.48;;;8.70;99.90;;;;;;5070589;28;20186;-77
2022/11/17 00:50:12;;;;;;;22.63;13.73;;;8.70;99.90;;;;;;5070522;28;20227;-77
2022/11/17 00:52:38;;;;;;;21.30;14.25;;;8.70;99.90;;;;;;5070458;28;20202;-78
2022/11/17 00:55:04;;;;;;;21.75;14.05;;;8.70;99.90;;;;;;5071689;28;20198;-77
2022/11/17 00:57:30;;;;;;;25.27;14.68;;;8.70;99.90;;;;;;5070404;28;20202;-77
2022/11/17 00:59:55;;;;;;;20.70;14.13;;;8.80;99.90;;;;;;5069544;28;20519;-78
2022/11/17 01:02:21;;;;;;;24.25;14.75;;;8.80;99.90;;;;;;5063094;28;20267;-77
2022/11/17 01:04:47;;;;;;;19.90;13.40;;;8.80;99.90;;;;;;5075216;28;20182;-77
2022/11/17 01:07:12;;;;;;;23.30;14.07;;;8.80;99.90;;;;;;5087516;28;20182;-77
2022/11/17 01:09:38;;;;;;;20.33;13.77;;;8.70;99.90;;;;;;5072171;28;20182;-77
2022/11/17 01:12:04;;;;;;;23.70;13.85;;;8.70;99.90;;;;;;5058752;28;20178;-77
2022/11/17 01:14:31;;;;;;;19.27;13.15;;;8.70;99.90;;;;;;5053666;28;20635;-77
2022/11/17 01:16:57;;;;;;;18.27;12.20;;;8.70;99.90;;;;;;5071526;28;20179;-77
2022/11/17 01:19:23;;;;;;;19.45;13.98;;;8.60;99.90;;;;;;5073973;28;20727;-78
2022/11/17 01:21:49;;;;;;;13.07;9.10;;;8.60;99.90;;;;;;5074947;28;20183;-78
2022/11/17 01:24:15;;;;;;;16.15;11.45;;;8.60;99.90;;;;;;5060531;28;22246;-77
2022/11/17 01:26:43;;;;;;;17.52;12.40;;;8.60;99.90;;;;;;5074759;28;20179;-78
2022/11/17 01:29:13;;;;;;;22.33;13.57;;;8.60;99.90;;;;;;5072335;28;20186;-78
2022/11/17 01:31:42;;;;;;;21.35;12.95;;;8.50;99.90;;;;;;5071843;28;20186;-77
2022/11/17 01:34:08;;;;;;;22.02;13.93;;;8.50;99.90;;;;;;5074574;28;20248;-78
2022/11/17 01:39:23;;;;;;;21.20;12.00;;;8.50;99.90;;;;;;5073241;28;20670;-77
2022/11/17 01:41:49;;;;;;;14.27;10.52;;;8.50;99.90;;;;;;5075636;28;20222;-77
2022/11/17 01:44:49;;;;;;;20.20;13.95;;;8.50;99.90;;;;;;5073878;28;20269;-78
2022/11/17 01:47:19;;;;;;;19.05;12.82;;;8.40;99.90;;;;;;5073168;28;20191;-77
2022/11/17 01:49:47;;;;;;;16.77;11.13;;;8.40;99.90;;;;;;5071309;28;20258;-79
2022/11/17 01:52:14;;;;;;;11.63;8.30;;;8.40;99.90;;;;;;5063607;28;20190;-79
2022/11/17 01:54:42;;;;;;;20.67;13.95;;;8.40;99.90;;;;;;5075567;28;20175;-79
2022/11/17 01:57:23;;;;;;;19.02;13.60;;;8.40;99.90;;;;;;5072225;28;20791;-77
2022/11/17 01:59:54;;;;;;;18.80;11.65;;;8.40;99.90;;;;;;5086866;28;20174;-76
2022/11/17 02:02:20;;;;;;;21.30;12.38;;;8.40;99.90;;;;;;5073182;28;20723;-77
2022/11/17 02:04:57;;;;;;;14.95;9.65;;;8.40;99.90;;;;;;5079145;28;20182;-77
2022/11/17 02:07:29;;;;;;;21.08;13.82;;;8.40;99.90;;;;;;5088857;28;20182;-77
2022/11/17 02:09:55;;;;;;;19.45;13.05;;;8.40;99.90;;;;;;5065444;28;20202;-79
2022/11/17 02:12:24;;;;;;;18.85;13.02;;;8.30;99.90;;;;;;5067157;28;20187;-78
2022/11/17 02:14:51;;;;;;;20.30;14.00;;;8.40;99.90;;;;;;5074939;28;20198;-77
2022/11/17 02:17:18;;;;;;;18.20;13.05;;;8.30;99.90;;;;;;5073758;28;20291;-78
2022/11/17 02:19:53;;;;;;;22.85;13.27;;;8.40;99.90;;;;;;5067544;28;20664;-79
2022/11/17 02:22:47;;;;;;;18.60;11.23;;;8.40;99.90;;;;;;5062258;28;20180;-78
2022/11/17 02:25:54;;;;;;;16.33;12.00;;;8.40;99.90;;;;;;5073948;28;20179;-79
2022/11/17 02:28:47;;;;;;;21.52;12.52;;;8.40;99.90;;;;;;5062708;28;20190;-78
2022/11/17 02:31:29;;;;;;;19.20;13.13;;;8.30;99.90;;;;;;5070680;28;20200;-78
2022/11/17 02:34:04;;;;;;;15.85;9.65;;;8.40;99.90;;;;;;5073926;28;20536;-78
2022/11/17 02:36:39;;;;;;;23.67;13.10;;;8.40;99.90;;;;;;5073867;28;20205;-78
2022/11/17 02:39:23;;;;;;;16.85;11.98;;;8.40;99.90;;;;;;5073281;28;20206;-78
2022/11/17 02:41:53;;;;;;;17.30;12.27;;;8.40;99.90;;;;;;5081409;28;20309;-80
2022/11/17 02:44:30;;;;;;;21.65;12.98;;;8.40;99.90;;;;;;5073510;28;20260;-79
2022/11/17 02:47:10;;;;;;;20.08;13.23;;;8.40;99.90;;;;;;5086325;28;20170;-78
2022/11/17 02:49:43;;;;;;;17.73;12.13;;;8.40;99.90;;;;;;5060686;28;20179;-77
2022/11/17 02:52:09;;;;;;;17.55;13.85;;;8.40;99.90;;;;;;5070365;28;20174;-78
2022/11/17 02:54:35;;;;;;;20.85;12.15;;;8.40;99.90;;;;;;5073237;28;20181;-78
2022/11/17 02:57:00;;;;;;;19.73;12.40;;;8.30;99.90;;;;;;5088815;28;20175;-78
2022/11/17 02:59:36;;;;;;;21.45;13.05;;;8.40;99.90;;;;;;5074156;28;20280;-78
2022/11/17 03:02:18;;;;;;;19.52;13.15;;;8.30;99.90;;;;;;5067411;28;20189;-79
2022/11/17 03:04:58;;;;;;;15.93;9.90;;;8.30;99.90;;;;;;5068520;28;20621;-77
2022/11/17 03:07:24;;;;;;;21.25;13.32;;;8.30;99.90;;;;;;5083633;28;20634;-77
2022/11/17 03:10:10;;;;;;;20.23;12.52;;;8.30;99.90;;;;;;5073950;28;20266;-77
2022/11/17 03:13:13;;;;;;;23.50;12.77;;;8.30;99.90;;;;;;5070576;28;20645;-78
2022/11/17 03:16:03;;;;;;;19.85;12.10;;;8.30;99.90;;;;;;5059285;28;20691;-77
2022/11/17 03:18:37;;;;;;;18.15;13.00;;;8.30;99.90;;;;;;5073015;28;20203;-76
2022/11/17 03:21:21;;;;;;;16.75;11.57;;;8.30;99.90;;;;;;5072773;28;20171;-78
2022/11/17 03:24:03;;;;;;;16.23;12.20;;;8.30;99.90;;;;;;5061569;28;20182;-78
2022/11/17 03:26:37;;;;;;;19.80;12.57;;;8.30;99.90;;;;;;5071701;28;20178;-77
2022/11/17 03:29:07;;;;;;;21.73;13.88;;;8.30;99.90;;;;;;5070972;28;20178;-77
2022/11/17 03:31:35;;;;;;;18.58;13.48;;;8.30;99.90;;;;;;5073114;28;20170;-77
2022/11/17 03:34:06;;;;;;;19.20;13.45;;;8.20;99.90;;;;;;5063098;28;20175;-77
2022/11/17 03:36:36;;;;;;;18.30;13.75;;;8.20;99.90;;;;;;5070492;28;20182;-77
2022/11/17 03:39:19;;;;;;;17.02;10.43;;;8.20;99.90;;;;;;5070853;28;20206;-77
2022/11/17 03:41:48;;;;;;;21.25;13.93;;;8.20;99.90;;;;;;5072739;28;20218;-77
2022/11/17 03:44:20;;;;;;;18.38;12.90;;;8.10;99.90;;;;;;5062994;28;20183;-76
2022/11/17 03:46:47;;;;;;;16.92;13.18;;;8.20;99.90;;;;;;5066278;28;20174;-77
2022/11/17 03:49:52;;;;;;;18.27;13.93;;;8.10;99.90;;;;;;5072844;28;20273;-76
2022/11/17 03:52:18;;;;;;;17.15;12.32;;;8.10;99.90;;;;;;5036652;28;20520;-77
2022/11/17 03:54:44;;;;;;;19.00;13.68;;;8.10;99.90;;;;;;5070454;28;20187;-77
2022/11/17 03:57:24;;;;;;;17.90;13.00;;;8.00;99.90;;;;;;5071075;28;20549;-77
2022/11/17 04:00:05;;;;;;;16.45;11.20;;;8.00;99.90;;;;;;5073499;28;20247;-77
2022/11/17 04:02:42;;;;;;;14.55;11.27;;;8.00;99.90;;;;;;5071927;28;20255;-77
2022/11/17 04:05:09;;;;;;;15.43;13.52;;;8.00;99.90;;;;;;5065678;28;20710;-77
2022/11/17 04:07:39;;;;;;;15.35;10.57;;;8.00;99.90;;;;;;5065464;28;20247;-77
2022/11/17 04:10:07;;;;;;;19.58;12.98;;;8.00;99.90;;;;;;5071762;28;20186;-76
2022/11/17 04:18:02;;;;;;;16.23;13.07;;;7.90;99.90;;;;;;5071899;28;20222;-77
2022/11/17 04:20:34;;;;;;;16.48;11.43;;;7.90;99.90;;;;;;5072912;28;20598;-75
2022/11/17 04:23:07;;;;;;;18.45;12.65;;;7.90;99.90;;;;;;5071610;28;20189;-77
2022/11/17 04:28:37;;;;;;;17.15;12.35;;;7.80;99.90;;;;;;5071501;28;20526;-77
2022/11/17 04:31:07;;;;;;;15.85;11.82;;;7.80;99.90;;;;;;5071804;28;20206;-77
2022/11/17 04:33:34;;;;;;;18.60;13.73;;;7.80;99.90;;;;;;5071489;28;20253;-77
2022/11/17 04:36:00;;;;;;;15.02;10.02;;;7.80;99.90;;;;;;5060431;28;20197;-79
2022/11/17 04:38:26;;;;;;;14.13;11.52;;;7.70;99.90;;;;;;5072401;28;20226;-78
2022/11/17 04:43:40;;;;;;;16.08;11.75;;;7.80;99.90;;;;;;5070081;28;20255;-78
2022/11/17 04:46:06;;;;;;;20.23;13.15;;;7.80;99.90;;;;;;5069969;28;20179;-77
2022/11/17 04:48:31;;;;;;;11.98;9.10;;;7.70;99.90;;;;;;5070713;28;20231;-77
2022/11/17 04:50:57;;;;;;;17.55;12.82;;;7.80;99.90;;;;;;5071937;28;20654;-78
2022/11/17 04:53:23;;;;;;;15.82;11.77;;;7.70;99.90;;;;;;5070913;28;20182;-77
2022/11/17 04:55:49;;;;;;;16.17;11.30;;;7.70;99.90;;;;;;5050741;28;20258;-80
2022/11/17 04:58:15;;;;;;;17.48;12.95;;;7.70;99.90;;;;;;5060139;28;20207;-77
2022/11/17 05:00:41;;;;;;;16.15;11.73;;;7.70;99.90;;;;;;5068553;28;20232;-77
2022/11/17 05:03:07;;;;;;;15.40;12.65;;;7.60;99.90;;;;;;5071428;28;20273;-76
2022/11/17 05:05:33;;;;;;;13.25;9.88;;;7.60;99.90;;;;;;5098504;28;20269;-78
2022/11/17 05:07:59;;;;;;;15.30;11.27;;;7.70;99.90;;;;;;5064519;28;20711;-77
2022/11/17 05:13:25;;;;;;;14.98;11.23;;;7.60;99.90;;;;;;5069678;28;20295;-78
2022/11/17 05:18:37;;;;;;;14.60;11.13;;;7.60;99.90;;;;;;5061249;28;20285;-78
2022/11/17 05:21:08;;;;;;;7.15;5.70;;;7.60;99.90;;;;;;5068703;28;20276;-79
2022/11/17 05:26:20;;;;;;;12.75;9.27;;;7.60;99.90;;;;;;5072316;28;20178;-77
2022/11/17 05:28:46;;;;;;;13.32;11.13;;;7.60;99.90;;;;;;5061816;28;20273;-78
2022/11/17 05:31:12;;;;;;;16.85;11.35;;;7.50;99.90;;;;;;5063364;28;20202;-79
2022/11/17 05:33:37;;;;;;;16.88;11.30;;;7.60;99.90;;;;;;5069724;28;20539;-78
2022/11/17 05:36:04;;;;;;;15.30;9.82;;;7.50;99.90;;;;;;5070820;28;20193;-79
2022/11/17 05:38:29;;;;;;;15.20;12.45;;;7.50;99.90;;;;;;5067465;28;20234;-78
2022/11/17 05:40:55;;;;;;;13.32;9.73;;;7.50;99.90;;;;;;5071594;28;20311;-79
2022/11/17 05:43:21;;;;;;;15.98;12.27;;;7.50;99.90;;;;;;5070199;28;20200;-78
2022/11/17 05:45:47;;;;;;;14.45;11.20;;;7.50;99.90;;;;;;5069485;28;20186;-76
2022/11/17 05:48:13;;;;;;;15.38;12.63;;;7.50;99.90;;;;;;5068077;28;20179;-78
2022/11/17 05:50:38;;;;;;;14.65;11.05;;;7.50;99.90;;;;;;5051868;28;21011;-76
2022/11/17 05:53:04;;;;;;;10.73;9.10;;;7.50;99.90;;;;;;5065433;28;20642;-78
2022/11/17 05:55:30;;;;;;;15.68;11.35;;;7.40;99.90;;;;;;5059210;28;20215;-77
2022/11/17 05:58:07;;;;;;;14.68;11.18;;;7.40;99.90;;;;;;5068081;28;20260;-78
2022/11/17 06:00:35;;;;;;;12.07;8.70;;;7.40;99.90;;;;;;5057069;28;20182;-79
2022/11/17 06:03:06;;;;;;;14.07;11.02;;;7.40;99.90;;;;;;5072833;28;20257;-78
2022/11/17 06:05:32;;;;;;;12.18;9.25;;;7.40;99.90;;;;;;5080390;28;20182;-79
2022/11/17 06:07:58;;;;;;;12.20;8.85;;;7.30;99.90;;;;;;5065232;28;20711;-78
2022/11/17 06:10:25;;;;;;;13.02;10.68;;;7.30;99.90;;;;;;5059010;28;20289;-80
2022/11/17 06:12:51;;;;;;;11.38;9.10;;;7.30;99.90;;;;;;5070120;28;20193;-80
2022/11/17 06:15:17;;;;;;;13.80;10.77;;;7.30;99.90;;;;;;5074205;28;20186;-78
2022/11/17 06:17:52;;;;;;;11.32;8.90;;;7.30;99.90;;;;;;5073763;28;20219;-79
2022/11/17 06:20:23;;;;;;;13.15;9.68;;;7.30;99.90;;;;;;5068244;28;20182;-80
2022/11/17 06:22:50;;;;;;;9.07;7.07;;;7.30;99.90;;;;;;5058273;28;20177;-82
2022/11/17 06:25:18;;;;;;;12.43;9.23;;;7.30;99.90;;;;;;5088858;28;20183;-79
2022/11/17 06:27:46;;;;;;;11.27;9.25;;;7.30;99.90;;;;;;5073690;28;20190;-79
2022/11/17 06:30:12;;;;;;;12.70;9.65;;;7.30;99.90;;;;;;5067602;28;20740;-80
2022/11/17 06:32:42;;;;;;;10.20;8.20;;;7.30;99.90;;;;;;5048784;28;20213;-78
2022/11/17 06:35:08;;;;;;;6.15;4.38;;;7.30;99.90;;;;;;5074780;28;20171;-78
2022/11/17 06:37:34;;;;;;;11.23;8.85;;;7.30;99.90;;;;;;5072233;28;20222;-76
2022/11/17 06:40:00;;;;;;;13.95;9.20;;;7.30;99.90;;;;;;5070586;28;20183;-79
2022/11/17 06:45:11;;;;;;;8.13;6.15;;;7.30;99.90;;;;;;5055092;28;20227;-78
2022/11/17 06:47:37;;;;;;;11.05;8.85;;;7.30;99.90;;;;;;5059282;28;20182;-77
2022/11/17 06:50:03;;;;;;;10.45;8.43;;;7.30;99.90;;;;;;5073293;28;20628;-79
2022/11/17 06:52:29;;;;;;;9.02;6.53;;;7.30;99.90;;;;;;5072923;28;20167;-80
2022/11/17 06:54:55;;;;;;;10.90;7.78;;;7.30;99.90;;;;;;5057315;28;20683;-81
2022/11/17 06:57:20;;;;;;;9.05;6.85;;;7.20;99.90;;;;;;5069514;28;20273;-82
2022/11/17 06:59:46;;;;;;;9.70;8.00;;;7.20;99.90;;;;;;5062475;28;20179;-80
2022/11/17 07:02:12;;;;;;;10.63;7.65;;;7.30;99.90;;;;;;5087579;28;20187;-79
2022/11/17 07:04:38;;;;;;;7.35;5.47;;;7.20;99.90;;;;;;5073250;28;20242;-80
2022/11/17 07:07:03;;;;;;;6.93;5.55;;;7.20;99.90;;;;;;5071253;28;20239;-79
2022/11/17 07:09:29;;;;;;;9.18;7.03;;;7.20;99.90;;;;;;5069459;28;21137;-79
2022/11/17 07:11:56;;;;;;;7.40;5.90;;;7.20;99.90;;;;;;5057009;28;20274;-83
2022/11/17 07:14:21;;;;;;;9.27;6.72;;;7.20;99.90;;;;;;5079821;28;20346;-79
2022/11/17 07:16:47;;;;;;;10.23;7.97;;;7.20;99.90;;;;;;5073940;28;20269;-77
2022/11/17 07:19:13;;;;;;;10.32;7.75;;;7.20;99.90;;;;;;5071606;28;20700;-75
2022/11/17 07:21:39;;;;;;;8.73;7.05;;;7.10;99.90;;;;;;5072559;28;20175;-75
2022/11/17 07:24:05;;;;;;;10.77;7.72;;;7.20;99.90;;;;;;5067386;28;20179;-77
2022/11/17 07:26:30;;;;;;;10.95;8.20;;;7.20;99.90;;;;;;5061018;28;20179;-75
2022/11/17 07:28:56;;;;;;;10.82;7.72;;;7.20;99.90;;;;;;5071596;28;20273;-80
2022/11/17 07:31:22;;;;;;;10.98;8.35;;;7.20;99.90;;;;;;5065280;28;20644;-75
2022/11/17 07:33:49;;;;;;;8.68;7.00;;;7.20;99.90;;;;;;5068162;28;20210;-75
2022/11/17 07:36:15;;;;;;;11.73;7.55;;;7.20;99.90;;;;;;5066590;28;20190;-79
2022/11/17 07:38:42;;;;;;;9.80;7.63;;;7.20;99.90;;;;;;5064907;28;20264;-79
2022/11/17 07:41:11;;;;;;;9.88;7.70;;;7.20;99.90;;;;;;5069484;28;20222;-76
2022/11/17 07:43:36;;;;;;;10.02;8.15;;;7.20;99.90;;;;;;5069844;28;20182;-76
2022/11/17 07:46:04;;;;;;;8.85;7.43;;;7.20;99.90;;;;;;5072688;28;20228;-77
2022/11/17 07:48:31;;;;;;;10.38;7.93;;;7.20;99.90;;;;;;5065332;28;20233;-81
2022/11/17 07:51:02;;;;;;;8.05;6.25;;;7.20;99.90;;;;;;5077174;28;20186;-77
2022/11/17 07:53:28;;;;;;;8.00;5.13;;;7.20;99.90;;;;;;5067433;28;20233;-79
2022/11/17 07:55:54;;;;;;;8.77;6.88;;;7.20;99.90;;;;;;5077457;28;20181;-77
2022/11/17 07:58:20;;;;;;;8.80;6.70;;;7.20;99.90;;;;;;5067092;28;20211;-78
2022/11/17 08:00:45;;;;;;;8.18;6.65;;;7.20;99.90;;;;;;5056598;28;20247;-82
2022/11/17 08:03:11;;;;;;;8.13;6.43;;;7.20;99.90;;;;;;5060666;28;21052;-78
2022/11/17 08:05:38;;;;;;;6.50;4.15;;;7.20;99.90;;;;;;5083949;28;20618;-77
2022/11/17 08:08:06;;;;;;;6.80;5.28;;;7.10;99.90;;;;;;5075292;28;20197;-76
2022/11/17 08:10:33;;;;;;;8.32;6.53;;;7.10;99.90;;;;;;5085039;28;20186;-77
2022/11/17 08:12:59;;;;;;;8.75;6.72;;;7.10;99.90;;;;;;5055760;28;20337;-78
2022/11/17 08:15:27;;;;;;;7.78;5.43;;;7.10;99.90;;;;;;5062783;28;20185;-77
2022/11/17 08:17:57;;;;;;;8.40;6.20;;;7.10;99.90;;;;;;5070935;28;20210;-78
2022/11/17 08:20:25;;;;;;;8.65;6.20;;;7.20;99.90;;;;;;5073180;28;20171;-78
2022/11/17 08:22:52;;;;;;;7.65;5.72;;;7.10;99.90;;;;;;5066455;28;20244;-78
2022/11/17 08:25:19;;;;;;;6.93;4.65;;;7.10;99.90;;;;;;5066073;28;20182;-77
2022/11/17 08:27:47;;;;;;;9.70;5.90;;;7.10;99.90;;;;;;5064517;28;20240;-76
2022/11/17 08:30:13;;;;;;;8.20;5.85;;;7.10;99.90;;;;;;5062205;28;20186;-79
2022/11/17 08:32:52;;;;;;;7.85;5.97;;;7.10;99.90;;;;;;5067668;28;20178;-82
2022/11/17 08:35:21;;;;;;;7.82;5.72;;;7.10;99.90;;;;;;5065694;28;20213;-77
2022/11/17 08:37:46;;;;;;;8.52;6.47;;;7.10;99.90;;;;;;5070891;28;20274;-77
2022/11/17 08:40:13;;;;;;;6.28;4.18;;;7.20;99.90;;;;;;5071680;28;20223;-77
2022/11/17 08:42:39;;;;;;;8.23;5.95;;;7.20;99.90;;;;;;5067158;28;20599;-76
2022/11/17 08:45:06;;;;;;;7.13;5.40;;;7.20;99.90;;;;;;5062017;28;20259;-78
2022/11/17 08:47:32;;;;;;;8.50;6.45;;;7.20;99.90;;;;;;5071224;28;20183;-78
2022/11/17 08:49:57;;;;;;;7.95;5.93;;;7.20;99.90;;;;;;5073668;28;20340;-78
2022/11/17 08:52:23;;;;;;;9.05;6.45;;;7.20;99.90;;;;;;5071429;28;20642;-78
2022/11/17 08:54:51;;;;;;;9.07;6.07;;;7.10;99.90;;;;;;5061153;28;20179;-78
2022/11/17 08:57:16;;;;;;;9.00;6.65;;;7.20;99.90;;;;;;5061760;28;20195;-78
2022/11/17 08:59:42;;;;;;;7.88;5.80;;;7.20;99.90;;;;;;5059059;28;20646;-77
2022/11/17 09:02:11;;;;;;;8.27;6.13;;;7.20;99.90;;;;;;5091903;28;20175;-78
2022/11/17 09:04:37;;;;;;;8.27;5.82;;;7.20;99.90;;;;;;5079091;28;20178;-81
2022/11/17 09:07:02;;;;;;;7.32;5.75;;;7.20;99.90;;;;;;5069883;28;20714;-80
2022/11/17 09:09:32;;;;;;;8.35;7.03;;;7.20;99.90;;;;;;5051584;28;20274;-78
2022/11/17 09:11:59;;;;;;;8.95;7.07;;;7.20;99.90;;;;;;5051952;28;20621;-78
2022/11/17 09:14:24;;;;;;;10.43;7.75;;;7.20;99.90;;;;;;5068278;28;20182;-79
2022/11/17 09:16:52;;;;;;;9.20;6.95;;;7.20;99.90;;;;;;5062181;28;20197;-78
2022/11/17 09:19:18;;;;;;;9.95;7.25;;;7.20;99.90;;;;;;5083554;28;20214;-77
2022/11/17 09:21:44;;;;;;;8.85;7.22;;;7.20;99.90;;;;;;5088082;28;20178;-77
2022/11/17 09:24:10;;;;;;;10.32;7.40;;;7.30;99.90;;;;;;5070428;28;20240;-77
2022/11/17 09:26:39;;;;;;;7.97;6.15;;;7.20;99.90;;;;;;5069324;28;20179;-77
2022/11/17 09:29:06;;;;;;;8.57;6.88;;;7.20;99.90;;;;;;5069532;28;20187;-78
2022/11/17 09:31:32;;;;;;;7.85;5.95;;;7.20;99.90;;;;;;5070409;28;20171;-77
2022/11/17 09:33:58;;;;;;;9.30;7.32;;;7.20;99.90;;;;;;5068320;28;20186;-79
2022/11/17 09:36:24;;;;;;;7.80;6.72;;;7.20;99.90;;;;;;5066620;28;20182;-77
2022/11/17 09:38:50;;;;;;;8.02;6.35;;;7.20;99.90;;;;;;5071482;28;20215;-78
2022/11/17 09:41:23;;;;;;;8.45;6.55;;;7.20;99.90;;;;;;5090524;28;20597;-77
2022/11/17 09:43:58;;;;;;;9.48;6.60;;;7.30;99.90;;;;;;5084877;28;20194;-77
2022/11/17 09:46:55;;;;;;;8.25;6.50;;;7.30;99.90;;;;;;5063236;28;20174;-79
2022/11/17 09:49:26;;;;;;;8.57;6.25;;;7.30;99.90;;;;;;5073147;28;20182;-77
2022/11/17 09:52:00;;;;;;;8.30;6.57;;;7.30;99.90;;;;;;5068616;28;20197;-77
2022/11/17 09:54:38;;;;;;;9.60;7.15;;;7.30;99.90;;;;;;5086514;28;20641;-79
2022/11/17 09:57:04;;;;;;;8.13;6.75;;;7.30;99.90;;;;;;5073069;28;20204;-77
2022/11/17 09:59:32;;;;;;;8.57;5.68;;;7.30;99.90;;;;;;5055431;28;20207;-77
2022/11/17 10:01:57;;;;;;;13.07;7.32;;;7.30;99.90;;;;;;5055572;28;20305;-78
2022/11/17 10:04:27;;;;;;;8.63;5.75;;;7.30;99.90;;;;;;5067253;28;20182;-76
2022/11/17 10:06:53;;;;;;;7.90;6.43;;;7.30;99.90;;;;;;5079116;28;20182;-80
2022/11/17 10:09:43;;;;;;;9.85;7.93;;;7.30;99.90;;;;;;5080603;28;20195;-82
2022/11/17 10:12:25;;;;;;;10.75;6.90;;;7.30;99.90;;;;;;5062279;28;20178;-76
2022/11/17 10:14:52;;;;;;;8.15;6.85;;;7.30;99.90;;;;;;5069316;28;20523;-76
2022/11/17 10:17:18;;;;;;;9.90;7.20;;;7.30;99.90;;;;;;5072563;28;20185;-77
2022/11/17 10:19:44;;;;;;;9.25;6.47;;;7.30;99.90;;;;;;5075184;28;20183;-76
2022/11/17 10:22:18;;;;;;;8.80;5.50;;;7.20;99.90;;;;;;5070913;28;20218;-78
2022/11/17 10:24:50;;;;;;;10.48;7.20;;;7.30;99.90;;;;;;5059222;28;20171;-78
2022/11/17 10:27:18;;;;;;;9.57;7.78;;;7.30;99.90;;;;;;5062216;28;20756;-80
2022/11/17 10:29:56;;;;;;;13.25;9.07;;;7.20;99.90;;;;;;5072114;28;20727;-77
2022/11/17 10:32:22;;;;;;;9.55;7.63;;;7.30;99.90;;;;;;5071040;28;20692;-76
2022/11/17 10:34:48;;;;;;;13.88;8.70;;;7.30;99.90;;;;;;5076108;28;20175;-78
2022/11/17 10:37:16;;;;;;;20.25;8.98;;;7.30;99.90;;;;;;5045485;28;21264;-77
2022/11/17 10:39:42;;;;;;;10.82;7.88;;;7.30;99.90;;;;;;5074865;28;20204;-78
2022/11/17 10:42:20;;;;;;;10.15;7.70;;;7.30;99.90;;;;;;5072056;28;20230;-80
2022/11/17 10:44:51;;;;;;;11.00;8.27;;;7.40;99.90;;;;;;5079545;28;20175;-78
2022/11/17 10:47:27;;;;;;;10.32;7.95;;;7.40;99.90;;;;;;5064847;28;20183;-77
2022/11/17 10:50:23;;;;;;;9.75;7.38;;;7.40;99.90;;;;;;5067987;28;20171;-81
2022/11/17 10:52:51;;;;;;;9.93;7.53;;;7.40;99.90;;;;;;5060383;28;20189;-78
2022/11/17 10:55:32;;;;;;;8.90;6.85;;;7.40;99.90;;;;;;5072961;28;20182;-78
2022/11/17 10:58:26;;;;;;;6.43;5.03;;;7.40;99.90;;;;;;5072187;28;20233;-78
2022/11/17 11:01:01;;;;;;;12.60;7.70;;;7.30;99.90;;;;;;5064793;28;20190;-78
2022/11/17 11:03:30;;;;;;;7.95;6.32;;;7.40;99.90;;;;;;5067328;28;20775;-78
2022/11/17 11:06:14;;;;;;;10.07;7.07;;;7.40;99.90;;;;;;5068476;28;20178;-77
2022/11/17 11:08:50;;;;;;;9.75;6.63;;;7.30;99.90;;;;;;5082990;28;20179;-77
2022/11/17 11:11:43;;;;;;;18.38;9.85;;;7.30;99.90;;;;;;5064797;28;20178;-80
2022/11/17 11:14:18;;;;;;;8.63;7.25;;;7.30;99.90;;;;;;5063674;28;20198;-77
2022/11/17 11:16:49;;;;;;;8.13;6.75;;;7.30;99.90;;;;;;5073828;28;20170;-77
2022/11/17 11:19:16;;;;;;;10.93;7.00;;;7.30;99.90;;;;;;5071768;28;20218;-77
2022/11/17 11:21:47;;;;;;;11.07;8.02;;;7.30;99.90;;;;;;5067867;28;20181;-80
2022/11/17 11:24:41;;;;;;;9.82;7.47;;;7.20;99.90;;;;;;5080924;28;20220;-77
2022/11/17 11:27:25;;;;;;;10.73;7.15;;;7.20;99.90;;;;;;5062023;28;20703;-78
2022/11/17 11:30:10;;;;;;;15.52;9.00;;;7.20;99.90;;;;;;5071030;28;20220;-77
2022/11/17 11:32:55;;;;;;;15.85;10.07;;;7.30;99.90;;;;;;5062738;28;20167;-83
2022/11/17 11:35:35;;;;;;;11.05;7.22;;;7.30;99.90;;;;;;5060313;28;20605;-84
2022/11/17 11:38:29;;;;;;;10.55;7.68;;;7.30;99.90;;;;;;5060764;28;20202;-76
2022/11/17 11:41:22;;;;;;;11.10;8.55;;;7.30;99.90;;;;;;5054293;28;20219;-77
2022/11/17 11:44:00;;;;;;;12.18;9.05;;;7.20;99.90;;;;;;5073225;28;20193;-78
2022/11/17 11:46:41;;;;;;;12.07;8.68;;;7.30;99.90;;;;;;5078538;28;20228;-79
2022/11/17 11:49:21;;;;;;;11.07;9.00;;;7.30;99.90;;;;;;5065784;28;21196;-81
2022/11/17 11:51:48;;;;;;;10.23;7.38;;;7.30;99.90;;;;;;5065992;28;20638;-77
2022/11/17 11:54:29;;;;;;;17.02;10.70;;;7.30;99.90;;;;;;5072099;28;20179;-79
2022/11/17 11:56:56;;;;;;;15.27;9.60;;;7.30;99.90;;;;;;5072635;28;20269;-81
2022/11/17 11:59:49;;;;;;;12.50;9.95;;;7.30;99.90;;;;;;5084157;28;20249;-78
2022/11/17 12:02:54;;;;;;;12.75;8.23;;;7.30;99.90;;;;;;5051929;28;20198;-77
2022/11/17 12:05:23;;;;;;;10.85;9.05;;;7.30;99.90;;;;;;5013760;28;20648;-77
2022/11/17 12:08:07;;;;;;;16.98;11.48;;;7.30;99.90;;;;;;5081755;28;20542;-77
2022/11/17 12:10:58;;;;;;;12.07;8.88;;;7.30;99.90;;;;;;5058141;28;20257;-75
2022/11/17 12:13:25;;;;;;;12.80;8.98;;;7.30;99.90;;;;;;5067200;28;20732;-75
2022/11/17 12:16:18;;;;;;;12.60;9.93;;;7.40;99.90;;;;;;5070029;28;20202;-75
2022/11/17 12:18:43;;;;;;;11.82;8.02;;;7.40;99.90;;;;;;5066547;28;20209;-75
2022/11/17 12:21:20;;;;;;;11.15;8.95;;;7.40;99.90;;;;;;5063423;28;20187;-78
2022/11/17 12:23:55;;;;;;;13.15;9.55;;;7.30;99.90;;;;;;5056615;28;20167;-78
2022/11/17 12:26:24;;;;;;;12.90;9.45;;;7.40;99.90;;;;;;5064920;28;20174;-75
2022/11/17 12:29:19;;;;;;;14.32;8.45;;;7.40;99.90;;;;;;5071046;28;20190;-76
2022/11/17 12:31:48;;;;;;;10.98;8.95;;;7.40;99.90;;;;;;5056991;28;20186;-82
2022/11/17 12:34:26;;;;;;;12.77;9.10;;;7.40;99.90;;;;;;5077423;28;20205;-76
2022/11/17 12:37:20;;;;;;;10.48;8.43;;;7.50;99.90;;;;;;5051749;28;20619;-76
2022/11/17 12:40:00;;;;;;;11.73;8.93;;;7.50;99.90;;;;;;5052990;28;20271;-75
2022/11/17 12:42:29;;;;;;;21.38;11.07;;;7.50;99.90;;;;;;5061839;28;20674;-75
2022/11/17 12:45:02;;;;;;;12.18;8.88;;;7.40;99.90;;;;;;5067660;28;20189;-75
2022/11/17 12:47:42;;;;;;;9.07;6.53;;;7.50;99.90;;;;;;5066891;28;20251;-75
2022/11/17 12:50:21;;;;;;;9.43;7.85;;;7.50;99.90;;;;;;5073232;28;20242;-75
2022/11/17 12:52:58;;;;;;;16.58;9.38;;;7.50;99.90;;;;;;5071469;28;20182;-75
2022/11/17 12:55:27;;;;;;;11.18;8.57;;;7.50;99.90;;;;;;5065246;28;20183;-76
2022/11/17 12:58:31;;;;;;;11.15;7.43;;;7.50;99.90;;;;;;5054332;28;20221;-79
2022/11/17 13:01:37;;;;;;;10.60;8.40;;;7.50;99.90;;;;;;5072086;28;20547;-75
2022/11/17 13:04:06;;;;;;;10.15;8.35;;;7.50;99.90;;;;;;5067424;28;20174;-78
2022/11/17 13:06:32;;;;;;;11.20;8.27;;;7.50;99.90;;;;;;5061849;28;20203;-76
2022/11/17 13:09:00;;;;;;;11.77;8.70;;;7.50;99.90;;;;;;5057709;28;20215;-80
2022/11/17 13:11:27;;;;;;;13.20;9.18;;;7.50;99.90;;;;;;5056296;28;20175;-76
2022/11/17 13:14:07;;;;;;;12.15;8.60;;;7.60;99.90;;;;;;5082149;28;20245;-81
2022/11/17 13:16:36;;;;;;;12.32;9.40;;;7.60;99.90;;;;;;5066075;28;20186;-77
2022/11/17 13:19:22;;;;;;;12.73;9.35;;;7.60;99.90;;;;;;5061959;28;20206;-75
2022/11/17 13:21:48;;;;;;;12.65;7.85;;;7.60;99.90;;;;;;5066536;28;20182;-76
2022/11/17 13:24:46;;;;;;;11.27;8.32;;;7.60;99.90;;;;;;5075189;28;20191;-76
2022/11/17 13:27:29;;;;;;;10.18;8.18;;;7.60;99.90;;;;;;5073351;28;20580;-82
2022/11/17 13:30:20;;;;;;;12.13;9.15;;;7.60;99.90;;;;;;5062042;28;20185;-76
2022/11/17 13:32:45;;;;;;;11.27;8.75;;;7.70;99.90;;;;;;5072934;28;20181;-77
2022/11/17 13:35:26;;;;;;;12.77;9.65;;;7.70;99.90;;;;;;5073262;28;20187;-76
2022/11/17 13:38:05;;;;;;;10.82;8.90;;;7.70;99.90;;;;;;5070105;28;20221;-80
2022/11/17 13:40:33;;;;;;;10.75;9.18;;;7.70;99.90;;;;;;5065518;28;20229;-77